createdAt,value
2018-02-23T00:00:05.763Z,0.85
2018-02-23T00:01:05.739Z,0.91
2018-02-23T00:02:05.710Z,0.78
2018-02-23T00:03:05.680Z,0.85
2018-02-23T00:04:05.654Z,0.88
2018-02-23T00:05:06.279Z,0.85
2018-02-23T00:06:05.605Z,0.81
2018-02-23T00:07:05.577Z,0.87
2018-02-23T00:08:51.500Z,0.81
2018-02-23T00:09:05.534Z,0.78
2018-02-23T00:10:05.512Z,0.81
2018-02-23T00:11:05.783Z,0.78
2018-02-23T00:12:05.460Z,0.84
2018-02-23T00:13:05.430Z,0.73
2018-02-23T00:15:05.379Z,0.74
2018-02-23T00:16:05.352Z,0.84
2018-02-23T00:17:05.630Z,0.85
2018-02-23T00:19:05.280Z,0.73
2018-02-23T00:20:05.259Z,0.74
2018-02-23T00:21:05.238Z,0.73
2018-02-23T00:22:05.206Z,0.66
2018-02-23T00:23:06.682Z,0.80
2018-02-23T00:24:05.163Z,0.74
2018-02-23T00:25:05.129Z,0.80
2018-02-23T00:26:05.105Z,0.80
2018-02-23T00:27:05.093Z,0.67
2018-02-23T00:30:05.660Z,0.78
2018-02-23T00:31:04.988Z,0.78
2018-02-23T00:32:04.955Z,0.78
2018-02-23T00:33:04.941Z,0.73
2018-02-23T00:35:04.901Z,0.74
2018-02-23T00:36:05.163Z,0.63
2018-02-23T00:37:04.832Z,0.70
2018-02-23T00:38:04.807Z,0.63
2018-02-23T00:39:04.782Z,0.70
2018-02-23T00:40:04.760Z,0.69
2018-02-23T00:41:04.732Z,0.69
2018-02-23T00:42:05.009Z,0.66
2018-02-23T00:43:04.683Z,0.66
2018-02-23T00:44:04.661Z,0.69
2018-02-23T00:45:04.642Z,0.66
2018-02-23T00:46:04.615Z,0.72
2018-02-23T00:47:04.583Z,0.70
2018-02-23T00:49:05.197Z,0.64
2018-02-23T00:50:04.513Z,0.60
2018-02-23T00:51:04.486Z,0.67
2018-02-23T00:52:04.458Z,0.70
2018-02-23T00:53:04.433Z,0.67
2018-02-23T00:54:04.408Z,0.69
2018-02-23T00:55:04.684Z,0.76
2018-02-23T00:56:04.358Z,0.66
2018-02-23T00:57:04.336Z,0.72
2018-02-23T00:58:04.310Z,0.66
2018-02-23T00:59:04.291Z,0.76
2018-02-23T01:00:04.285Z,0.63
2018-02-23T01:01:04.537Z,0.66
2018-02-23T01:02:04.209Z,0.64
2018-02-23T01:03:04.190Z,0.64
2018-02-23T01:04:04.159Z,0.67
2018-02-23T01:05:04.133Z,0.67
2018-02-23T01:06:04.111Z,0.60
2018-02-23T01:07:04.538Z,0.69
2018-02-23T01:08:04.070Z,0.69
2018-02-23T01:10:04.011Z,0.69
2018-02-23T01:11:03.989Z,0.72
2018-02-23T01:12:03.967Z,0.70
2018-02-23T01:13:04.334Z,0.70
2018-02-23T01:14:03.910Z,0.70
2018-02-23T01:15:03.895Z,0.62
2018-02-23T01:16:03.893Z,0.60
2018-02-23T01:18:03.813Z,0.64
2018-02-23T01:19:05.294Z,0.70
2018-02-23T01:20:03.765Z,0.62
2018-02-23T01:21:03.736Z,0.60
2018-02-23T01:22:03.711Z,0.64
2018-02-23T01:23:03.688Z,0.64
2018-02-23T01:24:03.665Z,0.73
2018-02-23T01:27:03.935Z,0.63
2018-02-23T01:28:03.566Z,0.64
2018-02-23T01:29:03.536Z,0.69
2018-02-23T01:30:03.510Z,0.70
2018-02-23T01:31:03.486Z,0.70
2018-02-23T01:32:03.465Z,0.63
2018-02-23T01:33:03.735Z,0.62
2018-02-23T01:34:03.414Z,0.69
2018-02-23T01:35:03.391Z,0.62
2018-02-23T01:36:03.366Z,0.62
2018-02-23T01:37:03.334Z,0.66
2018-02-23T01:38:03.313Z,0.60
2018-02-23T01:39:03.638Z,0.62
2018-02-23T01:40:03.261Z,0.64
2018-02-23T01:41:03.232Z,0.63
2018-02-23T01:42:03.217Z,0.69
2018-02-23T01:43:03.187Z,0.66
2018-02-23T01:44:03.199Z,0.63
2018-02-23T01:46:04.614Z,0.66
2018-02-23T01:47:03.083Z,0.60
2018-02-23T01:48:03.060Z,0.63
2018-02-23T01:49:03.035Z,0.56
2018-02-23T01:50:03.024Z,0.62
2018-02-23T01:52:03.257Z,0.63
2018-02-23T01:53:02.934Z,0.60
2018-02-23T01:54:02.908Z,0.60
2018-02-23T01:55:02.885Z,0.63
2018-02-23T01:56:02.859Z,0.64
2018-02-23T01:57:02.834Z,0.67
2018-02-23T01:58:03.460Z,0.66
2018-02-23T01:59:02.784Z,0.59
2018-02-23T02:00:02.755Z,0.59
2018-02-23T02:01:02.734Z,0.70
2018-02-23T02:03:02.682Z,0.64
2018-02-23T02:04:04.162Z,0.64
2018-02-23T02:05:02.630Z,0.64
2018-02-23T02:07:02.582Z,0.62
2018-02-23T02:08:02.556Z,0.67
2018-02-23T02:10:02.809Z,0.60
2018-02-23T02:11:02.483Z,0.63
2018-02-23T02:12:02.459Z,0.67
2018-02-23T02:13:02.436Z,0.64
2018-02-23T02:14:02.407Z,0.70
2018-02-23T02:15:02.382Z,0.69
2018-02-23T02:16:02.704Z,0.62
2018-02-23T02:17:02.331Z,0.67
2018-02-23T02:18:02.306Z,0.67
2018-02-23T02:19:02.280Z,0.67
2018-02-23T02:20:02.253Z,0.63
2018-02-23T02:21:02.231Z,0.62
2018-02-23T02:22:02.510Z,0.59
2018-02-23T02:23:02.231Z,0.67
2018-02-23T02:24:02.156Z,0.64
2018-02-23T02:25:02.129Z,0.69
2018-02-23T02:26:02.103Z,0.67
2018-02-23T02:27:02.080Z,0.64
2018-02-23T02:28:02.356Z,0.73
2018-02-23T02:31:02.028Z,0.56
2018-02-23T02:32:01.956Z,0.66
2018-02-23T02:33:01.930Z,0.64
2018-02-23T02:34:02.151Z,0.60
2018-02-23T02:35:01.878Z,0.69
2018-02-23T02:36:01.860Z,0.64
2018-02-23T02:37:01.877Z,0.55
2018-02-23T02:38:01.801Z,0.59
2018-02-23T02:39:01.782Z,0.48
2018-02-23T02:40:02.052Z,0.45
2018-02-23T02:41:01.726Z,0.56
2018-02-23T02:42:01.699Z,0.59
2018-02-23T02:44:01.707Z,0.48
2018-02-23T02:45:01.628Z,0.50
2018-02-23T02:46:01.863Z,0.48
2018-02-23T02:47:01.575Z,0.44
2018-02-23T02:48:01.551Z,0.47
2018-02-23T02:51:01.833Z,0.30
2018-02-23T02:52:01.748Z,0.35
2018-02-23T02:53:01.436Z,0.32
2018-02-23T02:54:01.400Z,0.32
2018-02-23T02:55:01.373Z,0.30
2018-02-23T02:56:01.348Z,0.23
2018-02-23T02:57:01.373Z,0.25
2018-02-23T02:58:01.800Z,0.30
2018-02-23T02:59:01.273Z,0.23
2018-02-23T03:01:01.226Z,0.11
2018-02-23T03:02:01.202Z,0.08
2018-02-23T03:03:01.223Z,0.07
2018-02-23T03:05:01.418Z,0.07
2018-02-23T03:06:01.096Z,-0.01
2018-02-23T03:07:01.072Z,-0.04
2018-02-23T03:09:01.371Z,-0.04
2018-02-23T03:10:00.991Z,-0.04
2018-02-23T03:11:01.270Z,-0.06
2018-02-23T03:12:00.940Z,-0.14
2018-02-23T03:13:00.914Z,-0.10
2018-02-23T03:16:00.889Z,-0.10
2018-02-23T03:17:01.112Z,-0.11
2018-02-23T03:18:00.786Z,-0.14
2018-02-23T03:19:00.778Z,-0.17
2018-02-23T03:20:00.786Z,-0.17
2018-02-23T03:21:00.708Z,-0.11
2018-02-23T03:22:00.684Z,-0.14
2018-02-23T03:23:00.915Z,-0.16
2018-02-23T03:24:00.640Z,-0.24
2018-02-23T03:25:00.606Z,-0.21
2018-02-23T03:26:00.629Z,-0.27
2018-02-23T03:27:00.562Z,-0.28
2018-02-23T03:28:00.529Z,-0.31
2018-02-23T03:29:00.802Z,-0.27
2018-02-23T03:30:00.479Z,-0.39
2018-02-23T03:31:00.462Z,-0.38
2018-02-23T03:32:00.471Z,-0.46
2018-02-23T03:33:00.396Z,-0.38
2018-02-23T03:34:00.372Z,-0.39
2018-02-23T03:35:00.646Z,-0.40
2018-02-23T03:36:00.320Z,-0.42
2018-02-23T03:37:00.291Z,-0.39
2018-02-23T03:38:00.313Z,-0.55
2018-02-23T03:39:00.242Z,-0.52
2018-02-23T03:40:00.212Z,-0.66
2018-02-23T03:42:00.515Z,-0.63
2018-02-23T03:43:00.135Z,-0.60
2018-02-23T03:44:00.108Z,-0.67
2018-02-23T03:45:00.090Z,-0.61
2018-02-23T03:46:00.064Z,-0.68
2018-02-23T03:47:00.028Z,-0.53
2018-02-23T03:48:00.303Z,-0.55
2018-02-23T03:48:59.979Z,-0.47
2018-02-23T03:49:59.949Z,-0.50
2018-02-23T03:50:59.923Z,-0.52
2018-02-23T03:51:59.894Z,-0.42
2018-02-23T03:52:59.870Z,-0.53
2018-02-23T03:54:01.346Z,-0.50
2018-02-23T03:54:59.824Z,-0.35
2018-02-23T03:55:59.789Z,-0.50
2018-02-23T03:57:59.741Z,-0.40
2018-02-23T03:59:59.934Z,-0.47
2018-02-23T04:00:59.658Z,-0.50
2018-02-23T04:01:59.639Z,-0.58
2018-02-23T04:03:59.628Z,-0.55
2018-02-23T04:04:59.611Z,-0.57
2018-02-23T04:05:59.774Z,-0.47
2018-02-23T04:06:59.499Z,-0.55
2018-02-23T04:07:59.473Z,-0.55
2018-02-23T04:08:59.444Z,-0.49
2018-02-23T04:09:59.418Z,-0.49
2018-02-23T04:10:59.399Z,-0.52
2018-02-23T04:11:59.616Z,-0.67
2018-02-23T04:12:59.340Z,-0.61
2018-02-23T04:13:59.324Z,-0.63
2018-02-23T04:14:59.292Z,-0.66
2018-02-23T04:15:59.259Z,-0.66
2018-02-23T04:16:59.283Z,-0.81
2018-02-23T04:17:59.508Z,-0.73
2018-02-23T04:18:59.181Z,-0.79
2018-02-23T04:19:59.154Z,-0.86
2018-02-23T04:20:59.130Z,-0.94
2018-02-23T04:21:59.105Z,-0.92
2018-02-23T04:22:59.132Z,-0.89
2018-02-23T04:23:59.308Z,-0.79
2018-02-23T04:24:59.021Z,-0.73
2018-02-23T04:25:58.997Z,-0.78
2018-02-23T04:26:59.018Z,-0.75
2018-02-23T04:27:58.950Z,-0.75
2018-02-23T04:29:59.145Z,-0.61
2018-02-23T04:30:58.886Z,-0.61
2018-02-23T04:31:58.880Z,-0.58
2018-02-23T04:32:58.808Z,-0.61
2018-02-23T04:33:58.852Z,-0.61
2018-02-23T04:34:58.838Z,-0.63
2018-02-23T04:35:59.038Z,-0.68
2018-02-23T04:36:58.708Z,-0.61
2018-02-23T04:37:58.679Z,-0.58
2018-02-23T04:38:58.649Z,-0.60
2018-02-23T04:40:58.596Z,-0.61
2018-02-23T04:41:58.819Z,-0.61
2018-02-23T04:42:58.545Z,-0.63
2018-02-23T04:43:58.515Z,-0.66
2018-02-23T04:44:58.538Z,-0.70
2018-02-23T04:46:58.432Z,-0.81
2018-02-23T04:47:58.658Z,-0.79
2018-02-23T04:48:58.430Z,-0.90
2018-02-23T04:49:58.360Z,-0.92
2018-02-23T04:50:58.329Z,-0.85
2018-02-23T04:51:58.304Z,-0.92
2018-02-23T04:52:58.279Z,-0.82
2018-02-23T04:53:58.495Z,-0.97
2018-02-23T04:54:58.274Z,-0.98
2018-02-23T04:55:58.202Z,-0.95
2018-02-23T04:56:58.171Z,-0.94
2018-02-23T04:57:58.139Z,-1.04
2018-02-23T04:58:58.116Z,-1.04
2018-02-23T04:59:58.384Z,-1.07
2018-02-23T05:00:58.108Z,-1.08
2018-02-23T05:01:58.035Z,-1.00
2018-02-23T05:02:58.007Z,-1.07
2018-02-23T05:03:57.982Z,-1.03
2018-02-23T05:04:58.116Z,-1.05
2018-02-23T05:05:58.229Z,-1.08
2018-02-23T05:06:59.147Z,-1.04
2018-02-23T05:07:57.870Z,-1.00
2018-02-23T05:08:57.845Z,-1.11
2018-02-23T05:09:57.819Z,-1.13
2018-02-23T05:10:57.796Z,-1.13
2018-02-23T05:11:58.037Z,-1.18
2018-02-23T05:12:57.739Z,-1.31
2018-02-23T05:13:57.708Z,-1.28
2018-02-23T05:14:57.684Z,-1.21
2018-02-23T05:15:57.657Z,-1.25
2018-02-23T05:16:57.632Z,-1.23
2018-02-23T05:17:57.896Z,-1.28
2018-02-23T05:18:57.623Z,-1.22
2018-02-23T05:19:57.550Z,-1.22
2018-02-23T05:20:57.569Z,-1.21
2018-02-23T05:21:57.496Z,-1.29
2018-02-23T05:22:57.467Z,-1.37
2018-02-23T05:23:57.688Z,-1.40
2018-02-23T05:24:57.416Z,-1.49
2018-02-23T05:25:57.383Z,-1.44
2018-02-23T05:26:57.411Z,-1.47
2018-02-23T05:27:57.433Z,-1.59
2018-02-23T05:28:57.400Z,-1.52
2018-02-23T05:29:57.754Z,-1.51
2018-02-23T05:30:57.279Z,-1.69
2018-02-23T05:31:57.354Z,-1.52
2018-02-23T05:32:57.330Z,-1.57
2018-02-23T05:33:57.231Z,-1.69
2018-02-23T05:34:57.138Z,-1.65
2018-02-23T05:35:57.414Z,-1.55
2018-02-23T05:36:57.085Z,-1.61
2018-02-23T05:37:57.055Z,-1.67
2018-02-23T05:38:57.052Z,-1.69
2018-02-23T05:39:57.003Z,-1.67
2018-02-23T05:40:56.976Z,-1.65
2018-02-23T05:41:57.245Z,-1.73
2018-02-23T05:42:56.920Z,-1.69
2018-02-23T05:43:56.898Z,-1.65
2018-02-23T05:44:56.914Z,-1.76
2018-02-23T05:45:56.836Z,-1.73
2018-02-23T05:46:56.815Z,-1.83
2018-02-23T05:47:57.132Z,-1.82
2018-02-23T05:48:56.838Z,-1.90
2018-02-23T05:49:57.033Z,-1.90
2018-02-23T05:50:56.866Z,-1.91
2018-02-23T05:51:56.820Z,-1.97
2018-02-23T05:52:56.727Z,-1.94
2018-02-23T05:53:57.586Z,-2.09
2018-02-23T05:54:58.061Z,-1.97
2018-02-23T05:56:56.632Z,-2.03
2018-02-23T05:57:56.512Z,-2.14
2018-02-23T05:59:56.838Z,-2.14
2018-02-23T06:01:56.392Z,-2.06
2018-02-23T06:02:56.366Z,-2.14
2018-02-23T06:03:56.339Z,-2.15
2018-02-23T06:04:56.318Z,-2.21
2018-02-23T06:05:56.438Z,-2.21
2018-02-23T06:06:56.565Z,-2.19
2018-02-23T06:07:56.233Z,-2.24
2018-02-23T06:08:56.199Z,-2.22
2018-02-23T06:09:56.194Z,-2.21
2018-02-23T06:10:56.145Z,-2.33
2018-02-23T06:11:56.174Z,-2.24
2018-02-23T06:12:56.099Z,-2.26
2018-02-23T06:13:56.361Z,-2.22
2018-02-23T06:14:56.031Z,-2.21
2018-02-23T06:15:56.003Z,-2.08
2018-02-23T06:16:55.980Z,-2.30
2018-02-23T06:17:55.995Z,-2.24
2018-02-23T06:18:55.919Z,-2.21
2018-02-23T06:19:55.894Z,-2.22
2018-02-23T06:20:56.172Z,-2.16
2018-02-23T06:21:55.838Z,-2.27
2018-02-23T06:22:55.807Z,-2.37
2018-02-23T06:23:55.826Z,-2.33
2018-02-23T06:24:55.754Z,-2.37
2018-02-23T06:25:55.721Z,-2.34
2018-02-23T06:26:55.694Z,-2.30
2018-02-23T06:27:56.064Z,-2.40
2018-02-23T06:28:55.636Z,-2.37
2018-02-23T06:29:55.612Z,-2.33
2018-02-23T06:30:55.580Z,-2.33
2018-02-23T06:31:56.571Z,-2.24
2018-02-23T06:32:55.529Z,-2.33
2018-02-23T06:33:56.531Z,-2.40
2018-02-23T06:34:55.723Z,-2.34
2018-02-23T06:35:56.200Z,-2.33
2018-02-23T06:36:55.424Z,-2.33
2018-02-23T06:37:55.387Z,-2.34
2018-02-23T06:38:55.371Z,-2.27
2018-02-23T06:39:55.381Z,-2.27
2018-02-23T06:40:55.776Z,-2.29
2018-02-23T06:41:55.275Z,-2.38
2018-02-23T06:42:55.254Z,-2.40
2018-02-23T06:43:55.239Z,-2.41
2018-02-23T06:44:55.185Z,-2.41
2018-02-23T06:45:55.214Z,-2.37
2018-02-23T06:47:55.405Z,-2.37
2018-02-23T06:48:55.073Z,-2.41
2018-02-23T06:49:55.051Z,-2.34
2018-02-23T06:50:55.019Z,-2.38
2018-02-23T06:51:56.198Z,-2.41
2018-02-23T06:52:54.963Z,-2.38
2018-02-23T06:53:54.984Z,-2.40
2018-02-23T06:54:54.907Z,-2.40
2018-02-23T06:55:54.888Z,-2.24
2018-02-23T06:56:54.848Z,-2.24
2018-02-23T06:57:54.901Z,-2.26
2018-02-23T06:58:54.796Z,-2.22
2018-02-23T06:59:55.075Z,-2.22
2018-02-23T07:00:54.739Z,-2.21
2018-02-23T07:01:54.715Z,-2.14
2018-02-23T07:02:54.682Z,-2.15
2018-02-23T07:03:54.700Z,-2.04
2018-02-23T07:04:54.628Z,-2.12
2018-02-23T07:05:54.595Z,-2.03
2018-02-23T07:06:54.824Z,-2.04
2018-02-23T07:07:54.547Z,-1.96
2018-02-23T07:08:54.539Z,-2.00
2018-02-23T07:09:54.539Z,-2.04
2018-02-23T07:10:54.516Z,-1.90
2018-02-23T07:11:54.431Z,-1.93
2018-02-23T07:12:54.655Z,-1.90
2018-02-23T07:13:54.418Z,-1.80
2018-02-23T07:14:54.346Z,-1.83
2018-02-23T07:15:54.714Z,-1.64
2018-02-23T07:17:54.265Z,-1.43
2018-02-23T07:18:54.241Z,-1.07
2018-02-23T07:19:54.507Z,-0.95
2018-02-23T07:20:54.174Z,-0.94
2018-02-23T07:21:54.197Z,-0.89
2018-02-23T07:22:54.142Z,-0.71
2018-02-23T07:23:54.096Z,-0.75
2018-02-23T07:24:54.068Z,-0.94
2018-02-23T07:25:54.344Z,-1.00
2018-02-23T07:26:54.063Z,-1.16
2018-02-23T07:28:53.960Z,-1.25
2018-02-23T07:29:53.930Z,-1.07
2018-02-23T07:30:53.911Z,-0.86
2018-02-23T07:31:53.875Z,-0.60
2018-02-23T07:32:54.159Z,-0.50
2018-02-23T07:33:53.822Z,-0.28
2018-02-23T07:34:53.794Z,-0.09
2018-02-23T07:35:53.763Z,0.14
2018-02-23T07:36:53.741Z,0.07
2018-02-23T07:37:53.713Z,0.41
2018-02-23T07:38:53.739Z,0.88
2018-02-23T07:39:53.665Z,1.03
2018-02-23T07:40:53.629Z,1.18
2018-02-23T07:41:53.609Z,1.55
2018-02-23T07:42:53.576Z,1.55
2018-02-23T07:43:53.551Z,1.48
2018-02-23T07:44:53.577Z,1.49
2018-02-23T07:45:53.807Z,1.52
2018-02-23T07:46:53.474Z,1.82
2018-02-23T07:48:53.466Z,1.78
2018-02-23T07:49:53.441Z,1.75
2018-02-23T07:50:53.375Z,1.81
2018-02-23T07:51:53.441Z,1.87
2018-02-23T07:52:53.627Z,1.75
2018-02-23T07:53:53.291Z,1.93
2018-02-23T07:54:53.264Z,1.93
2018-02-23T07:55:53.291Z,1.84
2018-02-23T07:56:53.276Z,1.93
2018-02-23T07:57:53.238Z,2.03
2018-02-23T07:58:53.418Z,1.99
2018-02-23T07:59:53.288Z,2.24
2018-02-23T08:00:53.116Z,1.84
2018-02-23T08:01:53.093Z,1.80
2018-02-23T08:02:53.126Z,2.03
2018-02-23T08:03:53.092Z,2.32
2018-02-23T08:04:53.274Z,2.57
2018-02-23T08:05:52.994Z,2.81
2018-02-23T08:06:52.970Z,2.65
2018-02-23T08:07:52.968Z,2.79
2018-02-23T08:08:52.920Z,3.29
2018-02-23T08:09:52.951Z,3.42
2018-02-23T08:10:53.177Z,3.23
2018-02-23T08:11:52.849Z,2.87
2018-02-23T08:12:52.824Z,2.94
2018-02-23T08:13:52.802Z,3.30
2018-02-23T08:14:52.779Z,2.73
2018-02-23T08:15:52.804Z,2.29
2018-02-23T08:16:53.038Z,2.04
2018-02-23T08:17:52.708Z,2.81
2018-02-23T08:18:52.706Z,2.75
2018-02-23T08:19:52.667Z,2.99
2018-02-23T08:20:52.672Z,3.15
2018-02-23T08:21:52.778Z,2.91
2018-02-23T08:22:52.963Z,3.14
2018-02-23T08:23:52.571Z,2.99
2018-02-23T08:24:53.940Z,2.86
2018-02-23T08:25:52.528Z,2.01
2018-02-23T08:26:52.516Z,2.55
2018-02-23T08:27:52.546Z,1.67
2018-02-23T08:28:52.724Z,2.28
2018-02-23T08:29:52.438Z,2.39
2018-02-23T08:30:52.418Z,2.54
2018-02-23T08:31:52.390Z,1.17
2018-02-23T08:32:52.370Z,2.04
2018-02-23T08:33:52.396Z,2.54
2018-02-23T08:34:52.629Z,2.82
2018-02-23T08:35:52.352Z,2.90
2018-02-23T08:36:52.309Z,3.14
2018-02-23T08:37:52.259Z,3.45
2018-02-23T08:38:52.747Z,3.08
2018-02-23T08:39:52.428Z,2.96
2018-02-23T08:40:52.229Z,1.69
2018-02-23T08:41:52.182Z,1.27
2018-02-23T08:42:52.186Z,2.00
2018-02-23T08:43:52.227Z,2.14
2018-02-23T08:44:52.155Z,1.64
2018-02-23T08:45:52.186Z,1.91
2018-02-23T08:46:52.061Z,1.99
2018-02-23T08:47:52.340Z,2.33
2018-02-23T08:48:52.018Z,1.62
2018-02-23T08:49:51.999Z,1.23
2018-02-23T08:50:52.026Z,0.96
2018-02-23T08:51:51.955Z,1.13
2018-02-23T08:52:51.930Z,1.69
2018-02-23T08:53:52.208Z,1.31
2018-02-23T08:54:51.903Z,0.88
2018-02-23T08:55:51.865Z,0.66
2018-02-23T08:56:51.903Z,0.60
2018-02-23T08:57:51.822Z,0.56
2018-02-23T08:58:51.807Z,0.66
2018-02-23T08:59:51.780Z,0.50
2018-02-23T09:00:52.014Z,0.47
2018-02-23T09:01:51.736Z,0.47
2018-02-23T09:02:51.763Z,0.64
2018-02-23T09:03:51.700Z,1.17
2018-02-23T09:04:51.674Z,1.91
2018-02-23T09:05:51.656Z,1.30
2018-02-23T09:06:51.668Z,1.16
2018-02-23T09:07:51.908Z,1.17
2018-02-23T09:08:51.636Z,0.74
2018-02-23T09:09:51.559Z,0.59
2018-02-23T09:10:51.536Z,0.43
2018-02-23T09:11:51.514Z,0.27
2018-02-23T09:12:51.494Z,0.12
2018-02-23T09:13:51.470Z,-0.07
2018-02-23T09:14:51.498Z,0.02
2018-02-23T09:15:51.534Z,-0.01
2018-02-23T09:16:51.401Z,-0.10
2018-02-23T09:17:51.430Z,-0.14
2018-02-23T09:18:51.437Z,-0.01
2018-02-23T09:19:51.591Z,-0.01
2018-02-23T09:20:51.322Z,-0.10
2018-02-23T09:21:51.383Z,-0.27
2018-02-23T09:22:51.277Z,-0.27
2018-02-23T09:23:51.593Z,-0.24
2018-02-23T09:24:51.232Z,-0.25
2018-02-23T09:25:51.506Z,-0.20
2018-02-23T09:26:51.190Z,-0.10
2018-02-23T09:27:51.166Z,-0.13
2018-02-23T09:28:51.135Z,-0.09
2018-02-23T09:29:51.215Z,-0.06
2018-02-23T09:30:51.087Z,-0.11
2018-02-23T09:31:51.356Z,-0.14
2018-02-23T09:32:51.039Z,-0.17
2018-02-23T09:33:51.012Z,-0.25
2018-02-23T09:34:50.988Z,-0.20
2018-02-23T09:35:51.011Z,-0.20
2018-02-23T09:36:50.939Z,-0.06
2018-02-23T09:37:50.935Z,-0.16
2018-02-23T09:38:50.894Z,-0.10
2018-02-23T09:39:50.869Z,-0.01
2018-02-23T09:40:50.991Z,-0.07
2018-02-23T09:41:50.819Z,-0.07
2018-02-23T09:42:50.800Z,0.00
2018-02-23T09:43:50.776Z,-0.10
2018-02-23T09:44:50.755Z,-0.11
2018-02-23T09:45:50.745Z,-0.10
2018-02-23T09:46:50.763Z,-0.13
2018-02-23T09:47:50.675Z,-0.21
2018-02-23T09:48:50.953Z,-0.10
2018-02-23T09:49:50.629Z,0.00
2018-02-23T09:50:50.609Z,0.09
2018-02-23T09:51:50.588Z,0.08
2018-02-23T09:52:50.565Z,-0.07
2018-02-23T09:53:50.547Z,-0.11
2018-02-23T09:54:50.510Z,0.02
2018-02-23T09:55:50.496Z,-0.04
2018-02-23T09:56:50.468Z,-0.14
2018-02-23T09:57:50.444Z,-0.03
2018-02-23T09:58:50.475Z,-0.10
2018-02-23T09:59:50.390Z,0.11
2018-02-23T10:00:50.371Z,0.09
2018-02-23T10:01:50.342Z,0.15
2018-02-23T10:02:50.327Z,0.20
2018-02-23T10:03:50.311Z,0.23
2018-02-23T10:04:50.328Z,0.08
2018-02-23T10:05:50.247Z,0.04
2018-02-23T10:06:50.227Z,-0.01
2018-02-23T10:07:50.201Z,0.15
2018-02-23T10:08:50.406Z,0.09
2018-02-23T10:09:50.160Z,0.17
2018-02-23T10:10:50.247Z,0.00
2018-02-23T10:11:50.416Z,0.05
2018-02-23T10:12:50.094Z,0.02
2018-02-23T10:13:50.081Z,0.33
2018-02-23T10:14:50.054Z,0.81
2018-02-23T10:15:50.027Z,0.81
2018-02-23T10:16:50.046Z,0.92
2018-02-23T10:17:50.280Z,0.80
2018-02-23T10:18:49.965Z,0.90
2018-02-23T10:19:49.995Z,1.56
2018-02-23T10:20:49.898Z,2.35
2018-02-23T10:21:52.543Z,1.77
2018-02-23T10:22:50.064Z,1.26
2018-02-23T10:23:50.312Z,0.91
2018-02-23T10:24:50.080Z,0.64
2018-02-23T10:25:52.991Z,0.47
2018-02-23T10:26:49.775Z,0.56
2018-02-23T10:27:49.958Z,0.56
2018-02-23T10:28:49.731Z,0.20
2018-02-23T10:29:50.014Z,0.26
2018-02-23T10:30:49.766Z,0.60
2018-02-23T10:31:49.654Z,0.22
2018-02-23T10:32:49.700Z,0.27
2018-02-23T10:33:49.606Z,0.36
2018-02-23T10:34:49.586Z,0.26
2018-02-23T10:35:49.863Z,0.45
2018-02-23T10:36:49.602Z,0.85
2018-02-23T10:37:49.515Z,1.17
2018-02-23T10:38:50.227Z,1.02
2018-02-23T10:39:49.469Z,0.94
2018-02-23T10:40:49.454Z,0.82
2018-02-23T10:41:49.427Z,0.67
2018-02-23T10:42:49.452Z,0.76
2018-02-23T10:43:49.389Z,0.66
2018-02-23T10:44:49.357Z,1.49
2018-02-23T10:45:49.335Z,1.35
2018-02-23T10:46:49.462Z,3.42
2018-02-23T10:47:49.294Z,4.10
2018-02-23T10:48:49.274Z,4.97
2018-02-23T10:49:49.246Z,3.80
2018-02-23T10:50:49.224Z,2.72
2018-02-23T10:51:49.198Z,2.33
2018-02-23T10:52:49.182Z,1.82
2018-02-23T10:53:49.163Z,1.59
2018-02-23T10:54:49.135Z,1.78
2018-02-23T10:55:49.115Z,1.62
2018-02-23T10:56:49.095Z,1.30
2018-02-23T10:57:49.077Z,1.23
2018-02-23T10:58:49.104Z,1.34
2018-02-23T10:59:49.087Z,1.84
2018-02-23T11:00:49.016Z,2.47
2018-02-23T11:01:48.986Z,2.73
2018-02-23T11:02:48.965Z,1.81
2018-02-23T11:03:48.946Z,1.62
2018-02-23T11:04:48.929Z,2.66
2018-02-23T11:05:49.251Z,3.23
2018-02-23T11:06:49.037Z,3.46
2018-02-23T11:07:48.891Z,4.06
2018-02-23T11:08:48.874Z,3.18
2018-02-23T11:09:48.839Z,4.05
2018-02-23T11:10:48.818Z,3.08
2018-02-23T11:11:48.787Z,4.35
2018-02-23T11:12:49.178Z,3.64
2018-02-23T11:13:48.896Z,3.66
2018-02-23T11:14:48.724Z,4.41
2018-02-23T11:15:48.717Z,4.38
2018-02-23T11:16:48.674Z,5.00
2018-02-23T11:17:48.674Z,6.02
2018-02-23T11:18:48.698Z,6.24
2018-02-23T11:19:48.622Z,6.70
2018-02-23T11:20:48.596Z,5.30
2018-02-23T11:21:48.593Z,5.55
2018-02-23T11:22:48.559Z,6.16
2018-02-23T11:23:48.593Z,6.67
2018-02-23T11:24:48.529Z,6.53
2018-02-23T11:25:48.508Z,7.01
2018-02-23T11:26:48.491Z,7.04
2018-02-23T11:27:48.468Z,6.79
2018-02-23T11:28:48.756Z,6.99
2018-02-23T11:29:48.597Z,7.36
2018-02-23T11:30:48.419Z,7.54
2018-02-23T11:31:48.414Z,7.18
2018-02-23T11:32:48.413Z,7.11
2018-02-23T11:33:48.376Z,7.31
2018-02-23T11:34:48.353Z,7.06
2018-02-23T11:35:49.886Z,5.52
2018-02-23T11:36:48.317Z,6.13
2018-02-23T11:37:48.310Z,6.34
2018-02-23T11:38:48.288Z,6.00
2018-02-23T11:39:48.278Z,5.24
2018-02-23T11:40:48.257Z,5.34
2018-02-23T11:41:48.459Z,5.75
2018-02-23T11:42:48.223Z,6.12
2018-02-23T11:43:48.213Z,6.24
2018-02-23T11:44:48.191Z,5.14
2018-02-23T11:45:48.180Z,5.62
2018-02-23T11:46:48.464Z,5.95
2018-02-23T11:47:48.198Z,6.79
2018-02-23T11:48:48.142Z,7.28
2018-02-23T11:49:48.115Z,7.22
2018-02-23T11:50:48.104Z,6.68
2018-02-23T11:51:48.085Z,5.52
2018-02-23T11:52:48.628Z,6.73
2018-02-23T11:53:48.359Z,7.71
2018-02-23T11:54:48.077Z,8.34
2018-02-23T11:55:48.052Z,8.17
2018-02-23T11:56:48.035Z,8.19
2018-02-23T11:57:48.026Z,8.35
2018-02-23T11:58:48.533Z,8.41
2018-02-23T11:59:50.123Z,8.05
2018-02-23T12:00:48.003Z,7.96
2018-02-23T12:01:48.395Z,7.69
2018-02-23T12:02:47.931Z,7.80
2018-02-23T12:03:48.020Z,7.31
2018-02-23T12:04:48.214Z,7.01
2018-02-23T12:05:47.899Z,7.76
2018-02-23T12:06:47.882Z,7.73
2018-02-23T12:07:49.145Z,6.45
2018-02-23T12:08:47.854Z,5.98
2018-02-23T12:09:47.837Z,6.13
2018-02-23T12:10:48.137Z,5.11
2018-02-23T12:11:47.809Z,4.56
2018-02-23T12:12:47.904Z,4.57
2018-02-23T12:13:47.835Z,4.71
2018-02-23T12:14:47.779Z,5.33
2018-02-23T12:15:47.817Z,4.78
2018-02-23T12:16:48.126Z,5.00
2018-02-23T12:17:47.777Z,6.13
2018-02-23T12:18:47.895Z,7.11
2018-02-23T12:19:48.161Z,6.47
2018-02-23T12:20:47.713Z,6.21
2018-02-23T12:21:47.710Z,5.58
2018-02-23T12:22:47.965Z,6.92
2018-02-23T12:23:47.644Z,8.16
2018-02-23T12:24:47.630Z,8.14
2018-02-23T12:25:47.665Z,7.18
2018-02-23T12:26:47.617Z,7.31
2018-02-23T12:27:47.584Z,7.80
2018-02-23T12:28:47.570Z,7.81
2018-02-23T12:29:47.643Z,7.39
2018-02-23T12:30:47.684Z,7.42
2018-02-23T12:31:47.926Z,8.23
2018-02-23T12:32:47.774Z,7.88
2018-02-23T12:33:48.044Z,7.62
2018-02-23T12:34:47.911Z,7.34
2018-02-23T12:35:47.567Z,7.11
2018-02-23T12:36:47.490Z,6.42
2018-02-23T12:37:47.507Z,5.52
2018-02-23T12:39:47.421Z,5.25
2018-02-23T12:40:47.417Z,4.88
2018-02-23T12:41:47.394Z,4.66
2018-02-23T12:42:47.433Z,4.83
2018-02-23T12:43:47.370Z,5.44
2018-02-23T12:44:47.365Z,5.25
2018-02-23T12:45:47.346Z,4.57
2018-02-23T12:46:47.330Z,4.57
2018-02-23T12:47:47.463Z,5.07
2018-02-23T12:48:47.539Z,4.89
2018-02-23T12:49:47.338Z,4.85
2018-02-23T12:50:48.261Z,5.80
2018-02-23T12:51:47.434Z,5.66
2018-02-23T12:52:47.455Z,6.19
2018-02-23T12:53:47.442Z,6.13
2018-02-23T12:54:47.352Z,6.37
2018-02-23T12:55:47.256Z,6.21
2018-02-23T12:56:47.683Z,6.82
2018-02-23T12:57:47.235Z,7.16
2018-02-23T12:58:47.138Z,7.08
2018-02-23T12:59:47.141Z,6.38
2018-02-23T13:00:47.104Z,6.12
2018-02-23T13:01:47.091Z,6.61
2018-02-23T13:02:47.127Z,6.78
2018-02-23T13:03:47.056Z,6.91
2018-02-23T13:04:47.047Z,7.03
2018-02-23T13:05:47.066Z,6.74
2018-02-23T13:06:47.022Z,6.38
2018-02-23T13:07:47.359Z,6.55
2018-02-23T13:08:47.013Z,7.01
2018-02-23T13:09:46.969Z,7.03
2018-02-23T13:10:46.958Z,6.75
2018-02-23T13:11:46.934Z,6.83
2018-02-23T13:12:46.919Z,6.68
2018-02-23T13:13:47.256Z,6.53
2018-02-23T13:14:46.897Z,6.88
2018-02-23T13:15:46.878Z,7.03
2018-02-23T13:16:46.863Z,7.69
2018-02-23T13:17:46.853Z,7.50
2018-02-23T13:18:46.834Z,7.66
2018-02-23T13:19:46.963Z,8.05
2018-02-23T13:20:46.815Z,8.16
2018-02-23T13:21:46.788Z,8.44
2018-02-23T13:22:46.778Z,8.21
2018-02-23T13:23:46.761Z,8.13
2018-02-23T13:24:46.766Z,8.20
2018-02-23T13:25:46.780Z,8.13
2018-02-23T13:26:46.719Z,8.26
2018-02-23T13:27:46.789Z,7.95
2018-02-23T13:28:46.686Z,8.23
2018-02-23T13:29:46.672Z,8.26
2018-02-23T13:30:47.063Z,8.41
2018-02-23T13:31:46.646Z,8.28
2018-02-23T13:32:46.634Z,8.47
2018-02-23T13:33:46.623Z,8.39
2018-02-23T13:34:46.635Z,7.81
2018-02-23T13:35:46.595Z,8.29
2018-02-23T13:36:46.784Z,8.39
2018-02-23T13:37:46.571Z,8.71
2018-02-23T13:38:46.555Z,8.39
2018-02-23T13:39:46.541Z,7.76
2018-02-23T13:40:46.531Z,7.49
2018-02-23T13:41:46.518Z,7.86
2018-02-23T13:42:46.565Z,8.04
2018-02-23T13:43:46.738Z,8.17
2018-02-23T13:44:46.478Z,7.96
2018-02-23T13:45:46.463Z,7.60
2018-02-23T13:46:46.454Z,8.01
2018-02-23T13:47:46.589Z,7.91